Time,TemperatureF,DewpointF,PressureIn,WindDirection,WindDirectionDegrees,WindSpeedMPH,WindSpeedGustMPH,Humidity,HourlyPrecipIn,Conditions,Clouds,dailyrainin,SoftwareType,DateUTC
2013-06-28 00:07:00,76.4,76.0,29.92,North,350,0.0,-999.0,98,-99.99,,,0.00,weatherlink.com 1.10,2013-06-28 04:07:00,
2013-06-28 00:22:00,76.3,76.0,29.92,North,350,0.0,-999.0,98,-99.99,,,0.00,weatherlink.com 1.10,2013-06-28 04:22:00,
2013-06-28 00:37:00,76.1,76.0,29.93,North,350,0.0,-999.0,98,-99.99,,,0.00,weatherlink.com 1.10,2013-06-28 04:37:00,
2013-06-28 00:52:00,76.1,76.0,29.92,North,350,0.0,-999.0,98,-99.99,,,0.00,weatherlink.com 1.10,2013-06-28 04:52:00,
2013-06-28 01:07:00,76.2,76.0,29.91,North,350,0.0,-999.0,98,-99.99,,,0.00,weatherlink.com 1.10,2013-06-28 05:07:00,
2013-06-28 01:22:00,76.4,76.0,29.91,North,360,0.0,-999.0,98,-99.99,,,0.00,weatherlink.com 1.10,2013-06-28 05:22:00,
2013-06-28 01:37:00,76.2,76.0,29.91,North,360,0.0,-999.0,98,-99.99,,,0.00,weatherlink.com 1.10,2013-06-28 05:37:00,
2013-06-28 01:52:00,76.1,76.0,29.91,North,5,0.0,-999.0,98,-99.99,,,0.00,weatherlink.com 1.10,2013-06-28 05:52:00,
2013-06-28 02:07:00,76.0,75.0,29.92,North,360,0.0,-999.0,98,-99.99,,,0.00,weatherlink.com 1.10,2013-06-28 06:07:00,
2013-06-28 02:22:00,76.0,75.0,29.92,North,360,0.0,-999.0,98,-99.99,,,0.00,weatherlink.com 1.10,2013-06-28 06:22:00,
2013-06-28 02:37:00,75.9,75.0,29.91,North,360,0.0,-999.0,98,-99.99,,,0.00,weatherlink.com 1.10,2013-06-28 06:37:00,
2013-06-28 02:52:00,75.8,75.0,29.90,North,360,0.0,-999.0,98,-99.99,,,0.00,weatherlink.com 1.10,2013-06-28 06:52:00,
2013-06-28 03:07:00,75.9,76.0,29.90,North,360,0.0,-999.0,99,-99.99,,,0.00,weatherlink.com 1.10,2013-06-28 07:07:00,
2013-06-28 03:22:00,75.9,76.0,29.89,North,360,0.0,-999.0,99,-99.99,,,0.00,weatherlink.com 1.10,2013-06-28 07:22:00,
2013-06-28 03:37:00,75.6,75.0,29.89,North,360,0.0,-999.0,98,-99.99,,,0.00,weatherlink.com 1.10,2013-06-28 07:37:00,
2013-06-28 03:52:00,75.6,75.0,29.89,North,355,0.0,-999.0,99,-99.99,,,0.00,weatherlink.com 1.10,2013-06-28 07:52:00,
2013-06-28 04:07:00,75.5,75.0,29.89,North,360,0.0,-999.0,99,-99.99,,,0.00,weatherlink.com 1.10,2013-06-28 08:07:00,
2013-06-28 04:22:00,75.4,75.0,29.89,North,355,0.0,-999.0,99,-99.99,,,0.00,weatherlink.com 1.10,2013-06-28 08:22:00,
2013-06-28 04:37:00,75.4,75.0,29.89,North,360,0.0,-999.0,99,-99.99,,,0.00,weatherlink.com 1.10,2013-06-28 08:37:00,
2013-06-28 04:45:00,75.4,75.1,29.90,North,360,0.0,0.0,99,0.00,,,0.00,Wunderground v.1.15,2013-06-28 08:45:00,
2013-06-28 04:50:00,75.4,75.1,29.90,North,360,0.0,0.0,99,0.00,,,0.00,Wunderground v.1.15,2013-06-28 08:50:00,
2013-06-28 04:55:00,75.4,75.1,29.90,North,360,0.0,0.0,99,0.00,,,0.00,Wunderground v.1.15,2013-06-28 08:55:00,
2013-06-28 05:00:00,75.3,75.0,29.89,North,360,0.0,0.0,99,0.00,,,0.00,Wunderground v.1.15,2013-06-28 09:00:00,
2013-06-28 05:05:00,75.3,75.0,29.89,North,360,0.0,0.0,99,0.00,,,0.00,Wunderground v.1.15,2013-06-28 09:05:00,
2013-06-28 05:10:00,75.4,75.1,29.89,North,359,0.0,0.0,99,0.00,,,0.00,Wunderground v.1.15,2013-06-28 09:10:00,
2013-06-28 05:15:00,75.4,75.1,29.89,North,360,0.0,0.0,99,0.00,,,0.00,Wunderground v.1.15,2013-06-28 09:15:00,
2013-06-28 05:20:00,75.5,75.2,29.89,North,9,0.0,0.0,99,0.00,,,0.00,Wunderground v.1.15,2013-06-28 09:20:00,
2013-06-28 05:25:00,75.5,75.2,29.89,North,9,0.0,0.0,99,0.00,,,0.00,Wunderground v.1.15,2013-06-28 09:25:00,
2013-06-28 05:35:00,75.4,75.1,29.89,North,8,0.0,0.0,99,0.00,,,0.00,Wunderground v.1.15,2013-06-28 09:35:00,
2013-06-28 05:40:00,75.4,75.1,29.89,North,9,0.0,0.0,99,0.00,,,0.00,Wunderground v.1.15,2013-06-28 09:40:00,
2013-06-28 05:50:00,75.5,75.2,29.88,WNW,291,0.0,0.0,99,0.00,,,0.00,Wunderground v.1.15,2013-06-28 09:50:00,
2013-06-28 05:55:00,75.6,75.3,29.89,NW,308,0.0,0.0,99,0.00,,,0.00,Wunderground v.1.15,2013-06-28 09:55:00,
2013-06-28 06:00:00,75.5,75.2,29.89,NW,308,0.0,0.0,99,0.00,,,0.00,Wunderground v.1.15,2013-06-28 10:00:00,
2013-06-28 06:05:00,75.6,75.3,29.89,NW,308,0.0,0.0,99,0.00,,,0.00,Wunderground v.1.15,2013-06-28 10:05:00,
2013-06-28 06:10:00,75.6,75.3,29.89,NW,308,0.0,0.0,99,0.00,,,0.00,Wunderground v.1.15,2013-06-28 10:10:00,
2013-06-28 06:20:00,75.6,75.3,29.90,NW,308,0.0,0.0,99,0.00,,,0.00,Wunderground v.1.15,2013-06-28 10:20:00,
2013-06-28 06:30:00,75.5,75.2,29.90,NW,308,0.0,0.0,99,0.00,,,0.00,Wunderground v.1.15,2013-06-28 10:30:00,
2013-06-28 06:35:00,75.5,75.2,29.90,NW,308,0.0,0.0,99,0.00,,,0.00,Wunderground v.1.15,2013-06-28 10:35:00,
2013-06-28 06:40:00,75.6,75.3,29.90,NW,308,0.0,0.0,99,0.00,,,0.00,Wunderground v.1.15,2013-06-28 10:40:00,
2013-06-28 06:45:00,75.6,75.3,29.90,NW,308,0.0,0.0,99,0.00,,,0.00,Wunderground v.1.15,2013-06-28 10:45:00,
2013-06-28 06:52:00,75.6,75.0,29.90,WNW,303,0.0,-999.0,99,-99.99,,,0.00,weatherlink.com 1.10,2013-06-28 10:52:00,
2013-06-28 07:00:00,75.8,75.5,29.90,NW,308,0.0,0.0,99,0.00,,,0.00,Wunderground v.1.15,2013-06-28 11:00:00,
2013-06-28 07:05:00,75.9,75.6,29.90,WNW,285,0.0,0.0,99,0.00,,,0.00,Wunderground v.1.15,2013-06-28 11:05:00,
2013-06-28 07:15:00,76.1,75.8,29.90,North,352,0.0,1.0,99,0.00,,,0.00,Wunderground v.1.15,2013-06-28 11:15:00,
2013-06-28 07:20:00,76.2,75.9,29.90,NNW,345,0.0,0.0,99,0.00,,,0.00,Wunderground v.1.15,2013-06-28 11:20:00,
2013-06-28 07:25:00,76.3,76.0,29.90,NNW,345,0.0,0.0,99,0.00,,,0.00,Wunderground v.1.15,2013-06-28 11:25:00,
2013-06-28 07:30:00,76.5,76.2,29.90,West,277,0.0,0.0,99,0.00,,,0.00,Wunderground v.1.15,2013-06-28 11:30:00,
2013-06-28 07:35:00,76.6,76.3,29.89,West,277,0.0,0.0,99,0.00,,,0.00,Wunderground v.1.15,2013-06-28 11:35:00,
2013-06-28 07:40:00,76.8,76.5,29.89,North,7,0.0,0.0,99,0.00,,,0.00,Wunderground v.1.15,2013-06-28 11:40:00,
2013-06-28 07:45:00,76.9,76.6,29.90,NW,318,0.0,0.0,99,0.00,,,0.00,Wunderground v.1.15,2013-06-28 11:45:00,
2013-06-28 07:50:00,77.1,76.8,29.89,West,271,0.0,0.0,99,0.00,,,0.00,Wunderground v.1.15,2013-06-28 11:50:00,
2013-06-28 08:00:00,77.4,77.1,29.90,NNW,328,0.0,0.0,99,0.00,,,0.00,Wunderground v.1.15,2013-06-28 12:00:00,
2013-06-28 08:07:00,77.7,77.0,29.90,South,174,0.0,-999.0,99,-99.99,,,0.00,weatherlink.com 1.10,2013-06-28 12:07:00,
2013-06-28 08:15:00,78.0,77.4,29.90,SW,221,0.0,1.0,98,0.00,,,0.00,Wunderground v.1.15,2013-06-28 12:15:00,
2013-06-28 08:20:00,78.1,77.5,29.89,West,276,0.0,3.0,98,0.00,,,0.00,Wunderground v.1.15,2013-06-28 12:20:00,
2013-06-28 08:25:00,78.3,77.7,29.89,West,277,0.0,3.0,98,0.00,,,0.00,Wunderground v.1.15,2013-06-28 12:25:00,
2013-06-28 08:30:00,78.3,77.4,29.89,North,1,0.0,0.0,97,0.00,,,0.00,Wunderground v.1.15,2013-06-28 12:30:00,
2013-06-28 08:35:00,78.7,78.1,29.89,West,267,0.0,0.0,98,0.00,,,0.00,Wunderground v.1.15,2013-06-28 12:35:00,
2013-06-28 08:40:00,78.9,78.0,29.89,ENE,68,0.0,0.0,97,0.00,,,0.00,Wunderground v.1.15,2013-06-28 12:40:00,
2013-06-28 08:45:00,79.3,78.4,29.89,NE,49,0.0,0.0,97,0.00,,,0.00,Wunderground v.1.15,2013-06-28 12:45:00,
2013-06-28 08:52:00,79.7,78.0,29.89,WSW,242,0.0,-999.0,94,-99.99,,,0.00,weatherlink.com 1.10,2013-06-28 12:52:00,
2013-06-28 09:00:00,80.8,78.6,29.89,SW,222,1.0,1.0,93,0.00,,,0.00,Wunderground v.1.15,2013-06-28 13:00:00,
2013-06-28 09:05:00,81.5,78.9,29.89,West,268,0.0,1.0,92,0.00,,,0.00,Wunderground v.1.15,2013-06-28 13:05:00,
2013-06-28 09:22:00,82.8,79.0,29.88,West,269,0.0,-999.0,88,-99.99,,,0.00,weatherlink.com 1.10,2013-06-28 13:22:00,
2013-06-28 09:37:00,83.8,79.0,29.89,West,271,1.0,-999.0,85,-99.99,,,0.00,weatherlink.com 1.10,2013-06-28 13:37:00,
2013-06-28 09:52:00,85.0,79.0,29.89,NE,55,1.0,-999.0,82,-99.99,,,0.00,weatherlink.com 1.10,2013-06-28 13:52:00,
2013-06-28 10:07:00,85.3,79.0,29.88,NNW,330,0.0,-999.0,82,-99.99,,,0.00,weatherlink.com 1.10,2013-06-28 14:07:00,
2013-06-28 10:22:00,85.7,78.0,29.87,West,263,4.0,-999.0,78,-99.99,,,0.00,weatherlink.com 1.10,2013-06-28 14:22:00,
2013-06-28 10:37:00,86.3,78.0,29.88,WNW,300,0.0,-999.0,76,-99.99,,,0.00,weatherlink.com 1.10,2013-06-28 14:37:00,
2013-06-28 10:52:00,86.8,80.0,29.87,WSW,256,1.0,-999.0,79,-99.99,,,0.00,weatherlink.com 1.10,2013-06-28 14:52:00,
2013-06-28 11:08:00,87.5,79.0,29.87,West,271,1.0,-999.0,76,-99.99,,,0.00,weatherlink.com 1.10,2013-06-28 15:08:00,
2013-06-28 11:22:00,87.7,78.0,29.87,West,277,0.0,-999.0,72,-99.99,,,0.00,weatherlink.com 1.10,2013-06-28 15:22:00,
2013-06-28 11:38:00,87.9,77.0,29.87,WNW,287,1.0,-999.0,70,-99.99,,,0.00,weatherlink.com 1.10,2013-06-28 15:38:00,
2013-06-28 11:53:00,88.6,78.0,29.86,WNW,287,0.0,-999.0,70,-99.99,,,0.00,weatherlink.com 1.10,2013-06-28 15:53:00,
2013-06-28 12:08:00,89.3,77.0,29.85,WNW,283,0.0,-999.0,67,-99.99,,,0.00,weatherlink.com 1.10,2013-06-28 16:08:00,
2013-06-28 12:23:00,89.2,76.0,29.85,WNW,284,0.0,-999.0,65,-99.99,,,0.00,weatherlink.com 1.10,2013-06-28 16:23:00,
2013-06-28 12:38:00,89.9,77.0,29.85,WNW,297,1.0,-999.0,66,-99.99,,,0.00,weatherlink.com 1.10,2013-06-28 16:38:00,
2013-06-28 12:53:00,90.5,77.0,29.85,NW,323,0.0,-999.0,64,-99.99,,,0.00,weatherlink.com 1.10,2013-06-28 16:53:00,
2013-06-28 13:08:00,90.7,76.0,29.84,NNW,329,0.0,-999.0,63,-99.99,,,0.00,weatherlink.com 1.10,2013-06-28 17:08:00,
2013-06-28 13:23:00,91.5,76.0,29.84,NW,309,1.0,-999.0,60,-99.99,,,0.00,weatherlink.com 1.10,2013-06-28 17:23:00,
2013-06-28 13:38:00,89.8,76.0,29.83,West,269,0.0,-999.0,64,-99.99,,,0.00,weatherlink.com 1.10,2013-06-28 17:38:00,
2013-06-28 13:53:00,89.0,76.0,29.84,NNE,26,1.0,-999.0,66,-99.99,,,0.00,weatherlink.com 1.10,2013-06-28 17:53:00,
2013-06-28 14:08:00,89.7,76.0,29.84,East,92,1.0,-999.0,65,-99.99,,,0.00,weatherlink.com 1.10,2013-06-28 18:08:00,
2013-06-28 14:23:00,87.3,75.0,29.84,NW,305,0.0,-999.0,66,-99.99,,,0.00,weatherlink.com 1.10,2013-06-28 18:23:00,
2013-06-28 14:38:00,84.3,75.0,29.85,West,269,2.0,-999.0,74,-99.99,,,0.00,weatherlink.com 1.10,2013-06-28 18:38:00,
2013-06-28 14:53:00,82.5,75.0,29.86,West,272,0.0,-999.0,77,-99.99,,,0.00,weatherlink.com 1.10,2013-06-28 18:53:00,
2013-06-28 15:08:00,81.6,75.0,29.87,NNW,333,0.0,-999.0,79,-99.99,,,0.00,weatherlink.com 1.10,2013-06-28 19:08:00,
2013-06-28 15:23:00,80.8,73.0,29.86,NNW,332,0.0,-999.0,78,-99.99,,,0.00,weatherlink.com 1.10,2013-06-28 19:23:00,
2013-06-28 15:38:00,80.5,73.0,29.86,WSW,238,0.0,-999.0,79,-99.99,,,0.00,weatherlink.com 1.10,2013-06-28 19:38:00,
2013-06-28 15:53:00,80.7,75.0,29.85,WSW,240,0.0,-999.0,82,-99.99,,,0.00,weatherlink.com 1.10,2013-06-28 19:53:00,
2013-06-28 16:08:00,81.2,76.0,29.84,WSW,242,0.0,-999.0,83,-99.99,,,0.00,weatherlink.com 1.10,2013-06-28 20:08:00,
2013-06-28 16:23:00,81.2,75.0,29.84,WNW,283,0.0,-999.0,81,-99.99,,,0.00,weatherlink.com 1.10,2013-06-28 20:23:00,
2013-06-28 16:38:00,81.6,75.0,29.82,NNW,332,0.0,-999.0,81,-99.99,,,0.00,weatherlink.com 1.10,2013-06-28 20:38:00,
2013-06-28 16:53:00,82.2,76.0,29.81,WNW,284,0.0,-999.0,80,-99.99,,,0.00,weatherlink.com 1.10,2013-06-28 20:53:00,
2013-06-28 17:08:00,83.0,75.0,29.80,NW,317,0.0,-999.0,77,-99.99,,,0.00,weatherlink.com 1.10,2013-06-28 21:08:00,
2013-06-28 17:23:00,82.5,75.0,29.80,SE,128,1.0,-999.0,79,-99.99,,,0.00,weatherlink.com 1.10,2013-06-28 21:23:00,
2013-06-28 17:38:00,82.1,75.0,29.80,ENE,78,1.0,-999.0,79,-99.99,,,0.00,weatherlink.com 1.10,2013-06-28 21:38:00,
2013-06-28 17:53:00,82.0,75.0,29.79,NW,325,0.0,-999.0,79,-99.99,,,0.00,weatherlink.com 1.10,2013-06-28 21:53:00,
2013-06-28 18:08:00,81.9,76.0,29.78,NNE,19,2.0,-999.0,81,-99.99,,,0.00,weatherlink.com 1.10,2013-06-28 22:08:00,
2013-06-28 18:23:00,81.4,75.0,29.78,NNE,19,0.0,-999.0,81,-99.99,,,0.00,weatherlink.com 1.10,2013-06-28 22:23:00,
2013-06-28 18:38:00,80.5,75.0,29.78,NE,55,0.0,-999.0,84,-99.99,,,0.00,weatherlink.com 1.10,2013-06-28 22:38:00,
2013-06-28 18:53:00,79.8,75.0,29.79,NE,55,0.0,-999.0,84,-99.99,,,0.00,weatherlink.com 1.10,2013-06-28 22:53:00,
2013-06-28 19:08:00,79.5,75.0,29.79,West,271,0.0,-999.0,85,-99.99,,,0.00,weatherlink.com 1.10,2013-06-28 23:08:00,
2013-06-28 19:23:00,79.2,74.0,29.80,West,271,0.0,-999.0,85,-99.99,,,0.00,weatherlink.com 1.10,2013-06-28 23:23:00,
2013-06-28 19:38:00,79.2,75.0,29.83,West,271,0.0,-999.0,87,-99.99,,,0.00,weatherlink.com 1.10,2013-06-28 23:38:00,
2013-06-28 19:53:00,79.0,75.0,29.83,West,271,0.0,-999.0,87,-99.99,,,0.00,weatherlink.com 1.10,2013-06-28 23:53:00,
2013-06-28 20:08:00,78.7,75.0,29.83,West,271,0.0,-999.0,88,-99.99,,,0.00,weatherlink.com 1.10,2013-06-29 00:08:00,
2013-06-28 20:23:00,78.3,75.0,29.82,WNW,284,0.0,-999.0,88,-99.99,,,0.00,weatherlink.com 1.10,2013-06-29 00:23:00,
2013-06-28 20:38:00,78.1,75.0,29.83,WNW,282,0.0,-999.0,90,-99.99,,,0.00,weatherlink.com 1.10,2013-06-29 00:38:00,
2013-06-28 20:53:00,77.6,75.0,29.83,WNW,283,0.0,-999.0,90,-99.99,,,0.00,weatherlink.com 1.10,2013-06-29 00:53:00,
2013-06-28 21:08:00,77.1,74.0,29.82,WNW,286,0.0,-999.0,90,-99.99,,,0.00,weatherlink.com 1.10,2013-06-29 01:08:00,
2013-06-28 21:23:00,76.7,74.0,29.82,WNW,286,0.0,-999.0,91,-99.99,,,0.00,weatherlink.com 1.10,2013-06-29 01:23:00,
2013-06-28 21:38:00,76.2,74.0,29.80,WNW,285,0.0,-999.0,91,-99.99,,,0.00,weatherlink.com 1.10,2013-06-29 01:38:00,
2013-06-28 21:53:00,76.1,74.0,29.80,WNW,286,0.0,-999.0,92,-99.99,,,0.00,weatherlink.com 1.10,2013-06-29 01:53:00,
2013-06-28 22:08:00,75.8,73.0,29.81,WNW,286,0.0,-999.0,92,-99.99,,,0.00,weatherlink.com 1.10,2013-06-29 02:08:00,
2013-06-28 22:23:00,75.5,73.0,29.81,WNW,286,0.0,-999.0,92,-99.99,,,0.00,weatherlink.com 1.10,2013-06-29 02:23:00,
2013-06-28 22:38:00,75.3,73.0,29.81,WNW,286,0.0,-999.0,93,-99.99,,,0.00,weatherlink.com 1.10,2013-06-29 02:38:00,
2013-06-28 22:53:00,75.2,73.0,29.81,WNW,285,0.0,-999.0,93,-99.99,,,0.00,weatherlink.com 1.10,2013-06-29 02:53:00,
2013-06-28 23:08:00,75.4,73.0,29.82,WNW,286,0.0,-999.0,93,-99.99,,,0.00,weatherlink.com 1.10,2013-06-29 03:08:00,
2013-06-28 23:23:00,75.2,73.0,29.81,WNW,286,0.0,-999.0,93,-99.99,,,0.00,weatherlink.com 1.10,2013-06-29 03:23:00,
2013-06-28 23:38:00,75.1,73.0,29.81,North,350,0.0,-999.0,93,-99.99,,,0.00,weatherlink.com 1.10,2013-06-29 03:38:00,
2013-06-28 23:53:00,75.2,73.0,29.80,NNW,328,0.0,-999.0,94,-99.99,,,0.00,weatherlink.com 1.10,2013-06-29 03:53:00,